Time;durP1;ratioP1;P1;durP2;ratioP2;P2;SDS_P1;SDS_P2;PMS_P1;PMS_P2;Temp;Humidity;BMP_temperature;BMP_pressure;BME280_temperature;BME280_humidity;BME280_pressure;Samples;Min_cycle;Max_cycle;Signal;HPM_P1;HPM_P2
2021/01/13 00:00:00;;;;;;;4.07;3.67;;;;;;;1.40;93.13;96676.94;5061446;28;20102;-67
2021/01/13 00:02:26;;;;;;;3.20;2.83;;;;;;;1.37;93.08;96687.56;5055309;28;20055;-66
2021/01/13 00:04:51;;;;;;;4.40;3.33;;;;;;;1.39;93.30;96694.25;5062844;28;20037;-65
2021/01/13 00:07:17;;;;;;;3.53;3.20;;;;;;;1.48;92.40;96691.63;5056593;28;20123;-65
2021/01/13 00:09:43;;;;;;;3.90;3.50;;;;;;;1.51;92.83;96686.41;5051768;28;20072;-65
2021/01/13 00:12:09;;;;;;;3.83;3.17;;;;;;;1.51;92.33;96691.00;5051837;28;20068;-66
2021/01/13 00:14:35;;;;;;;3.70;2.97;;;;;;;1.41;91.96;96680.47;5051701;28;20149;-64
2021/01/13 00:17:00;;;;;;;5.22;3.40;;;;;;;1.42;91.91;96682.03;5058146;28;20041;-65
2021/01/13 00:19:25;;;;;;;4.25;3.40;;;;;;;1.43;92.51;96684.44;5047575;28;20045;-66
2021/01/13 00:21:53;;;;;;;3.90;3.08;;;;;;;1.36;92.23;96684.06;5054453;28;20036;-66
2021/01/13 00:24:21;;;;;;;3.90;3.50;;;;;;;1.28;92.37;96680.22;5053460;28;20046;-66
2021/01/13 00:26:48;;;;;;;4.10;3.70;;;;;;;1.34;92.25;96684.38;5061169;28;20094;-66
2021/01/13 00:29:14;;;;;;;4.18;3.78;;;;;;;1.24;93.27;96690.03;5056363;28;20048;-65
2021/01/13 00:31:40;;;;;;;4.22;3.70;;;;;;;1.36;92.69;96694.09;5051898;28;20040;-64
2021/01/13 00:34:09;;;;;;;4.22;3.67;;;;;;;1.41;92.74;96700.16;5054030;28;20052;-64
2021/01/13 00:36:35;;;;;;;4.85;3.92;;;;;;;1.36;92.54;96694.09;5056555;28;20086;-65
2021/01/13 00:39:01;;;;;;;5.72;4.13;;;;;;;1.35;92.59;96704.06;5059667;28;20040;-65
2021/01/13 00:41:27;;;;;;;5.15;4.18;;;;;;;1.28;92.51;96704.50;5055420;28;20136;-65
2021/01/13 00:43:53;;;;;;;5.25;4.10;;;;;;;1.34;93.03;96714.06;5056590;28;20045;-65
2021/01/13 00:46:20;;;;;;;5.60;4.10;;;;;;;1.39;92.55;96717.75;5053550;28;20094;-65
2021/01/13 00:48:45;;;;;;;4.72;3.83;;;;;;;1.39;92.29;96715.03;5055505;28;20054;-65
2021/01/13 00:51:12;;;;;;;5.18;4.32;;;;;;;1.37;92.29;96709.97;5054594;28;20428;-65
2021/01/13 00:53:37;;;;;;;5.57;4.30;;;;;;;1.29;92.12;96713.38;5061179;28;20045;-66
2021/01/13 00:56:03;;;;;;;5.28;4.30;;;;;;;1.13;92.95;96719.16;5057380;28;20109;-65
2021/01/13 00:58:29;;;;;;;5.35;4.55;;;;;;;1.21;92.50;96716.84;5043414;28;20513;-66
2021/01/13 01:00:54;;;;;;;5.60;4.40;;;;;;;1.21;93.11;96717.63;5075689;28;20055;-64
2021/01/13 01:03:20;;;;;;;5.50;4.18;;;;;;;1.16;93.22;96717.75;5077276;28;20045;-67
2021/01/13 01:05:48;;;;;;;6.53;4.72;;;;;;;1.19;93.25;96719.84;5061319;28;20040;-66
2021/01/13 01:08:13;;;;;;;6.47;4.30;;;;;;;1.24;92.49;96719.72;5055497;28;20047;-65
2021/01/13 01:10:39;;;;;;;5.50;4.28;;;;;;;1.19;93.06;96717.13;5058580;28;20044;-66
2021/01/13 01:13:05;;;;;;;5.90;4.60;;;;;;;1.10;92.93;96725.16;5051412;28;20477;-66
2021/01/13 01:15:31;;;;;;;6.35;4.90;;;;;;;1.04;92.90;96728.25;5061222;28;20048;-66
2021/01/13 01:17:56;;;;;;;4.68;4.00;;;;;;;1.01;92.67;96731.56;5060792;28;20045;-65
2021/01/13 01:20:22;;;;;;;5.68;4.35;;;;;;;0.98;93.58;96732.19;5048292;28;20057;-66
2021/01/13 01:22:51;;;;;;;5.82;4.65;;;;;;;0.99;92.82;96744.56;5060468;28;20040;-65
2021/01/13 01:25:17;;;;;;;7.07;5.03;;;;;;;0.90;93.43;96747.16;5054822;28;20737;-66
2021/01/13 01:27:42;;;;;;;6.80;4.90;;;;;;;0.73;93.94;96745.91;5049667;28;20049;-64
2021/01/13 01:30:08;;;;;;;7.43;5.70;;;;;;;0.69;93.69;96742.22;5051405;28;20056;-64
2021/01/13 01:32:34;;;;;;;6.63;4.65;;;;;;;0.68;94.17;96747.91;5059494;28;20139;-66
2021/01/13 01:34:59;;;;;;;7.85;5.47;;;;;;;0.69;93.94;96749.50;5056224;28;20132;-64
2021/01/13 01:37:25;;;;;;;7.97;5.47;;;;;;;0.77;93.89;96740.69;5047162;28;20068;-66
2021/01/13 01:39:50;;;;;;;6.97;5.20;;;;;;;0.80;94.37;96742.00;5062215;28;20029;-66
2021/01/13 01:42:16;;;;;;;6.70;5.07;;;;;;;0.73;94.12;96735.09;5038489;28;20500;-64
2021/01/13 01:44:41;;;;;;;7.47;5.43;;;;;;;0.67;94.00;96725.53;5042784;28;20087;-66
2021/01/13 01:47:08;;;;;;;7.30;5.30;;;;;;;0.60;94.17;96738.63;5050420;28;20048;-65
2021/01/13 01:49:38;;;;;;;7.88;5.22;;;;;;;0.50;94.10;96736.13;5056004;28;20802;-64
2021/01/13 01:52:11;;;;;;;;;;;;;;;0.65;94.42;96737.72;5050128;28;20075;-65
2021/01/13 01:54:46;;;;;;;7.60;5.25;;;;;;;0.61;93.84;96737.50;5057180;28;19976;-65
2021/01/13 01:57:16;;;;;;;7.00;4.95;;;;;;;0.59;93.70;96747.81;5066074;28;20211;-65
2021/01/13 02:00:01;;;;;;;6.53;5.10;;;;;;;0.44;94.14;96740.03;5061437;28;20036;-65
2021/01/13 02:02:39;;;;;;;7.50;5.40;;;;;;;0.30;94.00;96740.03;5075919;28;20164;-65
2021/01/13 02:05:07;;;;;;;8.82;5.72;;;;;;;0.29;94.28;96743.81;5075975;28;20036;-65
2021/01/13 02:07:33;;;;;;;7.75;5.82;;;;;;;0.14;94.51;96742.22;5085366;28;20047;-65
2021/01/13 02:10:01;;;;;;;7.95;5.30;;;;;;;-0.07;95.02;96747.97;5042232;28;20132;-64
2021/01/13 02:12:29;;;;;;;9.20;5.78;;;;;;;-0.25;95.16;96738.06;5052407;28;20040;-65
2021/01/13 02:14:55;;;;;;;7.97;5.63;;;;;;;-0.34;95.27;96742.50;5060916;28;20113;-65
2021/01/13 02:17:37;;;;;;;8.40;5.97;;;;;;;-0.35;95.32;96751.69;5055089;28;20434;-65
2021/01/13 02:20:06;;;;;;;8.73;5.85;;;;;;;-0.41;95.92;96753.69;5057979;28;20064;-65
2021/01/13 02:22:51;;;;;;;11.15;6.40;;;;;;;-0.48;95.83;96756.72;5058305;28;20063;-65
2021/01/13 02:25:49;;;;;;;11.35;6.20;;;;;;;-0.56;96.59;96752.00;5058725;28;20040;-65
2021/01/13 02:28:20;;;;;;;12.82;7.60;;;;;;;-0.68;97.20;96752.47;5057728;28;20090;-65
2021/01/13 02:31:04;;;;;;;12.48;7.22;;;;;;;-0.82;97.68;96755.09;5063281;28;20428;-65
2021/01/13 02:33:40;;;;;;;12.07;7.07;;;;;;;-0.86;97.84;96747.91;5062445;28;20040;-64
2021/01/13 02:36:18;;;;;;;13.30;7.60;;;;;;;-0.89;97.79;96749.28;5061167;28;20078;-64
2021/01/13 02:38:48;;;;;;;14.68;8.07;;;;;;;-0.88;97.98;96755.44;5066659;28;20119;-66
2021/01/13 02:41:19;;;;;;;13.40;7.95;;;;;;;-0.90;98.34;96747.69;5055620;28;20041;-62
2021/01/13 02:43:59;;;;;;;16.27;8.63;;;;;;;-0.86;98.48;96756.78;5062974;28;20037;-66
2021/01/13 02:46:55;;;;;;;14.90;8.50;;;;;;;-0.88;98.66;96761.66;5057459;28;20414;-63
2021/01/13 02:49:26;;;;;;;14.73;7.53;;;;;;;-0.82;98.34;96767.75;5055521;28;20045;-64
2021/01/13 02:51:57;;;;;;;14.55;8.90;;;;;;;-0.77;98.59;96773.06;5062746;28;20041;-65
2021/01/13 02:54:33;;;;;;;12.70;7.38;;;;;;;-0.73;98.84;96776.75;5058517;28;20252;-66
2021/01/13 02:57:17;;;;;;;13.38;7.88;;;;;;;-0.73;98.36;96781.34;5063045;28;20139;-66
2021/01/13 02:59:47;;;;;;;11.80;7.13;;;;;;;-0.70;98.18;96791.50;5074813;28;20046;-65
2021/01/13 03:02:14;;;;;;;13.07;7.50;;;;;;;-0.62;98.02;96790.84;5076320;28;20427;-65
2021/01/13 03:04:40;;;;;;;13.88;7.35;;;;;;;-0.65;98.29;96786.03;5083518;28;20067;-65
2021/01/13 03:07:14;;;;;;;11.68;7.00;;;;;;;-0.68;98.27;96797.41;5077398;28;20047;-65
2021/01/13 03:09:45;;;;;;;11.95;7.20;;;;;;;-0.67;98.20;96796.31;5083147;28;20040;-65
2021/01/13 03:12:19;;;;;;;12.40;7.20;;;;;;;-0.62;98.57;96796.22;5078093;28;20040;-64
2021/01/13 03:15:00;;;;;;;12.68;8.15;;;;;;;-0.58;98.36;96791.84;5083957;28;20097;-65
2021/01/13 03:17:28;;;;;;;14.07;7.97;;;;;;;-0.44;98.08;96797.31;5098372;28;20066;-66
2021/01/13 03:20:16;;;;;;;12.52;7.55;;;;;;;-0.41;97.86;96802.13;5096329;28;20048;-65
2021/01/13 03:22:53;;;;;;;14.25;7.18;;;;;;;-0.37;97.96;96805.81;5082140;28;20040;-65
2021/01/13 03:25:22;;;;;;;11.77;7.63;;;;;;;-0.35;98.14;96808.22;5077473;28;20058;-64
2021/01/13 03:27:49;;;;;;;14.73;8.55;;;;;;;-0.33;97.99;96797.94;5056418;28;20032;-64
2021/01/13 03:30:17;;;;;;;14.98;8.32;;;;;;;-0.16;97.53;96802.78;5054296;28;20036;-63
2021/01/13 03:33:05;;;;;;;13.80;7.75;;;;;;;-0.17;97.52;96807.38;5056936;28;20094;-64
2021/01/13 03:35:50;;;;;;;13.00;8.13;;;;;;;-0.18;97.20;96813.03;5039246;28;20457;-65
2021/01/13 03:38:18;;;;;;;13.07;7.90;;;;;;;-0.12;97.32;96812.69;5008426;28;20041;-65
2021/01/13 03:40:49;;;;;;;13.75;8.07;;;;;;;-0.08;96.74;96810.19;5041241;28;20540;-64
2021/01/13 03:43:22;;;;;;;12.70;8.18;;;;;;;-0.14;96.91;96820.25;5037726;28;20466;-66
2021/01/13 03:45:55;;;;;;;13.82;8.35;;;;;;;-0.15;96.46;96820.53;5052682;28;20074;-65
2021/01/13 03:48:35;;;;;;;12.80;8.32;;;;;;;-0.21;96.40;96817.94;5053244;28;20037;-66
2021/01/13 03:51:02;;;;;;;14.77;8.15;;;;;;;-0.25;96.35;96813.44;5061088;28;20045;-66
2021/01/13 03:53:29;;;;;;;15.23;7.90;;;;;;;-0.34;95.96;96823.25;5057302;28;20044;-65
2021/01/13 03:55:57;;;;;;;14.00;7.68;;;;;;;-0.34;96.24;96828.63;5054122;28;20582;-66
2021/01/13 03:58:41;;;;;;;14.82;8.18;;;;;;;-0.40;96.48;96819.84;5039221;28;20048;-67
2021/01/13 04:01:22;;;;;;;14.05;7.72;;;;;;;-0.50;95.85;96810.03;5049491;28;20028;-64
2021/01/13 04:04:25;;;;;;;13.77;8.00;;;;;;;-0.54;95.88;96811.72;5054826;28;20443;-67
2021/01/13 04:07:01;;;;;;;14.95;8.38;;;;;;;-0.52;95.78;96814.91;5053332;28;20072;-66
2021/01/13 04:09:31;;;;;;;14.45;7.78;;;;;;;-0.60;96.30;96821.75;5041066;28;20040;-66
2021/01/13 04:12:11;;;;;;;19.23;9.95;;;;;;;-0.66;96.37;96830.19;5066493;28;20098;-66
2021/01/13 04:14:46;;;;;;;16.65;9.27;;;;;;;-0.77;96.41;96830.31;5052820;28;20052;-66
2021/01/13 04:17:15;;;;;;;15.40;8.13;;;;;;;-0.84;96.77;96829.88;5051705;28;20440;-66
2021/01/13 04:19:42;;;;;;;16.95;8.90;;;;;;;-0.83;96.74;96828.81;5042308;28;20044;-66
2021/01/13 04:22:10;;;;;;;18.35;9.65;;;;;;;-0.77;96.98;96841.09;5050643;28;20125;-64
2021/01/13 04:24:36;;;;;;;18.90;9.18;;;;;;;-0.72;97.35;96836.72;5053975;28;20044;-67
2021/01/13 04:27:02;;;;;;;19.80;9.65;;;;;;;-0.73;97.49;96838.63;5053447;28;20048;-66
2021/01/13 04:29:27;;;;;;;19.73;9.75;;;;;;;-0.68;97.02;96845.81;5058376;28;20040;-66
2021/01/13 04:31:53;;;;;;;19.88;10.20;;;;;;;-0.69;97.46;96836.94;5057960;28;20059;-65
2021/01/13 04:34:19;;;;;;;20.08;9.57;;;;;;;-0.82;97.08;96840.34;5057195;28;20044;-65
2021/01/13 04:36:49;;;;;;;22.38;9.60;;;;;;;-0.84;96.93;96839.84;5052364;28;20492;-65
2021/01/13 04:39:18;;;;;;;16.92;9.40;;;;;;;-0.87;97.10;96848.50;5039075;28;20045;-66
2021/01/13 04:42:05;;;;;;;16.52;8.95;;;;;;;-0.91;97.35;96848.25;5053082;28;20106;-65
2021/01/13 04:44:33;;;;;;;17.10;9.10;;;;;;;-0.83;97.61;96852.19;5056741;28;20036;-65
2021/01/13 04:47:05;;;;;;;18.67;9.15;;;;;;;-0.77;97.29;96848.38;5052896;28;20040;-66
2021/01/13 04:49:32;;;;;;;19.85;9.32;;;;;;;-0.65;97.79;96850.59;5050542;28;20056;-65
2021/01/13 04:52:05;;;;;;;16.73;9.25;;;;;;;-0.58;97.28;96840.28;5062003;28;20041;-64
2021/01/13 04:54:31;;;;;;;16.75;8.82;;;;;;;-0.61;97.06;96844.38;5052133;28;20110;-65
2021/01/13 04:56:56;;;;;;;19.02;8.57;;;;;;;-0.59;97.17;96844.88;5060350;28;20032;-65
2021/01/13 04:59:31;;;;;;;16.70;8.30;;;;;;;-0.69;96.85;96841.53;5064447;28;20496;-65
2021/01/13 05:02:10;;;;;;;15.90;8.63;;;;;;;-0.78;96.95;96839.47;5069055;28;20640;-65
2021/01/13 05:05:03;;;;;;;13.98;9.07;;;;;;;-0.95;96.36;96847.25;5070265;28;20544;-67
2021/01/13 05:07:40;;;;;;;18.33;9.15;;;;;;;-1.06;96.30;96845.75;5073109;28;20072;-64
2021/01/13 05:10:13;;;;;;;18.25;8.40;;;;;;;-1.18;96.17;96859.63;5041019;28;20088;-64
2021/01/13 05:12:51;;;;;;;16.35;8.43;;;;;;;-1.33;96.27;96855.22;5043619;28;20386;-63
2021/01/13 05:15:27;;;;;;;20.98;9.90;;;;;;;-1.43;96.27;96869.56;5038732;28;20047;-64
2021/01/13 05:18:03;;;;;;;19.52;9.73;;;;;;;-1.43;96.48;96861.50;5054795;28;20044;-65
2021/01/13 05:20:30;;;;;;;24.50;10.65;;;;;;;-1.39;96.52;96861.72;5042559;28;20048;-65
2021/01/13 05:22:57;;;;;;;20.83;10.77;;;;;;;-1.38;96.56;96864.13;5055651;28;20044;-66
2021/01/13 05:25:39;;;;;;;19.67;10.35;;;;;;;-1.35;96.42;96876.22;5048388;28;20836;-66
2021/01/13 05:28:12;;;;;;;19.98;10.50;;;;;;;-1.28;96.23;96876.63;5047579;28;20151;-64
2021/01/13 05:30:40;;;;;;;31.17;10.38;;;;;;;-1.26;96.32;96882.56;5052967;28;20053;-65
2021/01/13 05:33:07;;;;;;;21.13;10.38;;;;;;;-1.30;96.82;96883.41;5065226;28;20021;-64
2021/01/13 05:35:36;;;;;;;23.95;10.82;;;;;;;-1.31;96.97;96885.28;5038679;28;20107;-64
2021/01/13 05:38:11;;;;;;;23.17;10.98;;;;;;;-1.26;97.06;96887.09;5053579;28;20041;-65
2021/01/13 05:40:48;;;;;;;32.67;11.43;;;;;;;-1.29;97.08;96893.06;5051072;28;20078;-66
2021/01/13 05:43:14;;;;;;;24.05;11.15;;;;;;;-1.33;97.17;96903.59;5048190;28;20485;-65
2021/01/13 05:45:41;;;;;;;24.95;12.38;;;;;;;-1.42;96.92;96902.63;5052013;28;20079;-65
2021/01/13 05:48:26;;;;;;;29.48;12.85;;;;;;;-1.36;97.21;96909.53;5045364;28;20102;-65
2021/01/13 05:50:54;;;;;;;29.23;12.52;;;;;;;-1.35;97.39;96908.44;5042808;28;20499;-64
2021/01/13 05:53:22;;;;;;;24.60;11.75;;;;;;;-1.38;97.42;96907.13;5041485;28;20113;-65
2021/01/13 05:55:49;;;;;;;24.60;12.65;;;;;;;-1.41;97.08;96914.94;5060354;28;20093;-64
2021/01/13 05:58:21;;;;;;;22.17;10.75;;;;;;;-1.41;97.42;96914.94;5054645;28;20037;-64
2021/01/13 06:00:50;;;;;;;21.48;10.05;;;;;;;-1.36;97.30;96915.69;5057551;28;20070;-65
2021/01/13 06:03:20;;;;;;;21.38;10.57;;;;;;;-1.32;97.30;96915.94;5042743;28;20048;-64
2021/01/13 06:05:56;;;;;;;20.58;10.27;;;;;;;-1.29;97.20;96919.94;5053962;28;20439;-64
2021/01/13 06:08:25;;;;;;;21.85;10.70;;;;;;;-1.27;97.32;96912.41;5047217;28;21024;-66
2021/01/13 06:10:55;;;;;;;17.88;9.52;;;;;;;-1.28;97.09;96914.25;5051758;28;20040;-66
2021/01/13 06:13:27;;;;;;;22.15;10.50;;;;;;;-1.23;96.71;96916.09;5049024;28;20061;-65
2021/01/13 06:15:57;;;;;;;18.95;10.30;;;;;;;-1.26;96.49;96917.50;5063402;28;20040;-65
2021/01/13 06:18:25;;;;;;;19.42;9.57;;;;;;;-1.33;96.30;96921.59;5068263;28;20048;-63
2021/01/13 06:20:54;;;;;;;21.55;9.52;;;;;;;-1.41;95.97;96923.00;5052271;28;20040;-65
2021/01/13 06:23:21;;;;;;;;;;;;;;;-1.50;95.75;96930.09;5056641;28;20063;-64
2021/01/13 06:25:53;;;;;;;19.30;10.02;;;;;;;-1.60;96.16;96923.72;5066697;28;20357;-64
2021/01/13 06:28:32;;;;;;;18.50;9.90;;;;;;;-1.72;95.82;96934.03;5060290;28;20044;-66
2021/01/13 06:31:08;;;;;;;20.83;9.68;;;;;;;-1.84;95.69;96939.75;5062752;28;20150;-66
2021/01/13 06:33:35;;;;;;;20.38;10.05;;;;;;;-1.90;95.63;96946.25;5053344;28;20056;-65
2021/01/13 06:36:21;;;;;;;21.42;10.77;;;;;;;-1.87;95.76;96942.19;5057442;28;20036;-65
2021/01/13 06:38:55;;;;;;;19.92;10.15;;;;;;;-1.79;96.44;96938.91;5056582;28;20044;-66
2021/01/13 06:41:21;;;;;;;20.55;10.43;;;;;;;-1.80;96.25;96937.31;5037286;28;20509;-65
2021/01/13 06:43:58;;;;;;;19.85;9.10;;;;;;;-1.74;96.42;96941.56;5048389;28;20041;-65
2021/01/13 06:46:24;;;;;;;18.20;9.60;;;;;;;-1.65;96.28;96939.09;5050804;28;20776;-66
2021/01/13 06:48:49;;;;;;;18.88;9.63;;;;;;;-1.66;96.27;96948.22;5047842;28;20056;-65
2021/01/13 06:51:19;;;;;;;22.70;9.50;;;;;;;-1.62;96.72;96947.38;5048398;28;20041;-65
2021/01/13 06:53:46;;;;;;;20.73;10.63;;;;;;;-1.60;96.56;96941.72;5066330;28;20037;-64
2021/01/13 06:56:13;;;;;;;25.10;11.75;;;;;;;-1.59;96.24;96941.44;5051425;28;20448;-64
2021/01/13 06:59:01;;;;;;;23.45;11.32;;;;;;;-1.59;95.90;96946.78;5043898;28;20132;-65
2021/01/13 07:01:28;;;;;;;23.42;10.40;;;;;;;-1.62;95.54;96938.50;5051336;28;20649;-65
2021/01/13 07:04:01;;;;;;;18.73;8.98;;;;;;;-1.63;95.42;96928.84;5060691;28;20041;-64
2021/01/13 07:06:27;;;;;;;16.20;9.30;;;;;;;-1.59;94.92;96929.88;5019777;28;20044;-64
2021/01/13 07:08:53;;;;;;;17.40;8.95;;;;;;;-1.52;94.03;96935.72;5058146;28;20086;-66
2021/01/13 07:11:19;;;;;;;17.85;9.02;;;;;;;-1.54;94.02;96936.00;5053319;28;20467;-65
2021/01/13 07:13:50;;;;;;;14.48;8.10;;;;;;;-1.58;93.69;96942.25;5043006;28;20071;-66
2021/01/13 07:16:21;;;;;;;13.57;7.43;;;;;;;-1.60;93.42;96939.84;5058271;28;20041;-65
2021/01/13 07:18:47;;;;;;;12.77;7.80;;;;;;;-1.59;93.43;96943.31;5036541;28;20379;-66
2021/01/13 07:21:12;;;;;;;12.25;7.28;;;;;;;-1.56;93.01;96950.81;5045776;28;20044;-65
2021/01/13 07:23:45;;;;;;;12.13;6.80;;;;;;;-1.53;92.61;96955.63;5051147;28;20044;-66
2021/01/13 07:26:14;;;;;;;12.52;6.78;;;;;;;-1.50;92.59;96955.06;5044772;28;20076;-65
2021/01/13 07:28:40;;;;;;;11.82;6.85;;;;;;;-1.63;92.07;96943.06;5054760;28;20051;-65
2021/01/13 07:31:07;;;;;;;14.07;7.75;;;;;;;-1.86;92.08;96954.53;5058507;28;20044;-65
2021/01/13 07:33:35;;;;;;;15.85;8.30;;;;;;;-2.00;92.33;96957.06;5059816;28;20148;-65
2021/01/13 07:36:02;;;;;;;14.15;8.15;;;;;;;-2.04;92.34;96966.75;5050498;28;20048;-65
2021/01/13 07:38:33;;;;;;;16.77;9.23;;;;;;;-2.14;92.53;96967.63;5041176;28;20510;-65
2021/01/13 07:40:58;;;;;;;20.92;10.63;;;;;;;-2.38;93.51;96979.00;5052774;28;20418;-66
2021/01/13 07:43:36;;;;;;;20.02;11.07;;;;;;;-2.37;94.62;96977.94;5049618;28;20045;-63
2021/01/13 07:46:07;;;;;;;17.77;8.77;;;;;;;-2.47;94.51;96982.53;5060686;28;20392;-63
2021/01/13 07:48:58;;;;;;;15.77;8.65;;;;;;;-2.33;94.96;96995.06;5086110;28;20029;-65
2021/01/13 07:51:32;;;;;;;16.73;8.15;;;;;;;-2.17;94.58;96995.81;5059942;28;20530;-63
2021/01/13 07:54:24;;;;;;;19.98;9.07;;;;;;;-2.22;93.86;97000.41;5059175;28;20051;-65
2021/01/13 07:56:53;;;;;;;32.10;23.83;;;;;;;-2.36;94.26;97006.38;5031325;28;20060;-64
2021/01/13 07:59:38;;;;;;;18.05;10.63;;;;;;;-2.37;93.85;97003.97;5042253;28;20109;-65
2021/01/13 08:02:28;;;;;;;18.58;12.27;;;;;;;-2.32;93.94;97012.00;5055602;28;20489;-64
2021/01/13 08:05:12;;;;;;;;;;;;;;;-2.21;93.94;97010.88;5056135;28;20735;-64
2021/01/13 08:07:42;;;;;;;21.48;9.80;;;;;;;-2.15;93.39;97015.09;5056621;28;20373;-66
2021/01/13 08:10:09;;;;;;;17.35;9.40;;;;;;;-2.10;93.04;97026.91;5055228;28;20036;-65
2021/01/13 08:12:53;;;;;;;15.73;9.25;;;;;;;-2.00;92.79;97019.63;5056799;28;20036;-65
2021/01/13 08:15:38;;;;;;;14.68;8.07;;;;;;;-1.87;92.49;97017.38;5053244;28;20044;-64
2021/01/13 08:18:41;;;;;;;14.35;7.60;;;;;;;-1.66;92.78;97020.72;5052734;28;20048;-65
2021/01/13 08:21:16;;;;;;;14.93;8.38;;;;;;;-1.35;92.88;97029.38;5030570;28;20033;-65
2021/01/13 08:23:47;;;;;;;16.83;8.02;;;;;;;-1.11;92.98;97047.44;5058149;28;20067;-65
2021/01/13 08:26:14;;;;;;;12.90;7.18;;;;;;;-0.86;91.52;97038.34;5058755;28;20059;-66
2021/01/13 08:28:48;;;;;;;19.35;8.07;;;;;;;-0.63;89.34;97042.13;5045678;28;20051;-63
2021/01/13 08:31:25;;;;;;;19.85;11.63;;;;;;;-0.42;89.47;97045.38;5049249;28;20130;-64
2021/01/13 08:34:07;;;;;;;13.18;7.75;;;;;;;-0.32;88.66;97047.19;5057002;28;20037;-64
2021/01/13 08:36:35;;;;;;;14.65;8.70;;;;;;;-0.28;87.84;97045.50;5053615;28;20048;-64
2021/01/13 08:39:28;;;;;;;16.75;7.57;;;;;;;-0.16;87.08;97047.78;5054305;28;20052;-65
2021/01/13 08:42:16;;;;;;;12.93;7.63;;;;;;;-0.10;86.87;97054.72;5056420;28;20047;-63
2021/01/13 08:44:42;;;;;;;17.23;8.65;;;;;;;0.07;86.02;97065.78;5057659;28;20044;-64
2021/01/13 08:47:08;;;;;;;11.93;8.25;;;;;;;0.16;85.79;97053.28;5036211;28;20048;-65
2021/01/13 08:49:35;;;;;;;13.63;7.30;;;;;;;0.17;85.94;97052.19;5039741;28;20054;-64
2021/01/13 08:52:12;;;;;;;15.48;8.98;;;;;;;-0.13;86.64;97050.69;5061761;28;20040;-66
2021/01/13 08:54:42;;;;;;;16.27;8.85;;;;;;;-0.18;87.41;97055.34;5062203;28;20072;-66
2021/01/13 08:57:10;;;;;;;16.77;8.88;;;;;;;0.02;87.60;97056.97;5055688;28;20047;-63
2021/01/13 08:59:48;;;;;;;18.38;8.68;;;;;;;0.23;87.19;97054.81;5056489;28;20055;-65
2021/01/13 09:02:20;;;;;;;18.27;8.18;;;;;;;0.35;86.33;97049.78;5047970;28;20090;-65
2021/01/13 09:04:53;;;;;;;11.93;7.15;;;;;;;0.49;85.17;97060.66;5054386;28;20058;-65
2021/01/13 09:07:21;;;;;;;11.90;7.78;;;;;;;0.54;85.15;97055.97;5047650;28;20758;-64
2021/01/13 09:09:56;;;;;;;15.00;7.97;;;;;;;0.61;85.18;97057.50;5061044;28;20040;-65
2021/01/13 09:12:32;;;;;;;11.52;7.00;;;;;;;0.68;85.42;97056.00;5070598;28;20067;-65
2021/01/13 09:15:06;;;;;;;12.50;7.38;;;;;;;0.79;84.80;97053.16;5066509;28;20040;-65
2021/01/13 09:17:33;;;;;;;14.82;8.23;;;;;;;0.83;84.39;97055.00;5064453;28;20675;-63
2021/01/13 09:20:01;;;;;;;13.13;7.43;;;;;;;0.58;84.62;97053.50;5055821;28;20106;-63
2021/01/13 09:22:40;;;;;;;11.48;6.95;;;;;;;0.37;85.51;97055.69;5050160;28;20041;-64
2021/01/13 09:25:13;;;;;;;10.05;6.65;;;;;;;0.30;85.59;97066.81;5049708;28;20048;-64
2021/01/13 09:27:43;;;;;;;11.80;6.03;;;;;;;0.43;85.39;97070.69;5039236;28;20498;-64
2021/01/13 09:30:22;;;;;;;9.65;5.97;;;;;;;0.60;85.11;97080.16;5019707;28;20125;-65
2021/01/13 09:32:53;;;;;;;10.23;6.13;;;;;;;0.83;84.35;97068.47;5054151;28;20036;-64
2021/01/13 09:35:30;;;;;;;10.25;5.70;;;;;;;1.01;83.57;97077.63;5057361;28;20033;-61
2021/01/13 09:37:58;;;;;;;12.82;6.75;;;;;;;1.14;82.67;97074.16;5065780;28;20044;-65
2021/01/13 09:40:49;;;;;;;12.07;7.38;;;;;;;1.23;82.63;97076.97;5060267;28;20553;-64
2021/01/13 09:43:29;;;;;;;10.48;5.47;;;;;;;1.32;82.08;97077.09;5059030;28;20131;-64
2021/01/13 09:45:57;;;;;;;10.38;5.90;;;;;;;1.39;81.91;97082.09;5047230;28;20417;-65
2021/01/13 09:48:24;;;;;;;11.98;6.40;;;;;;;1.43;82.43;97069.63;5040704;28;20058;-64
2021/01/13 09:51:11;;;;;;;10.95;6.50;;;;;;;1.39;nan;97077.50;5063911;28;20037;-67
2021/01/13 09:53:48;;;;;;;11.25;7.05;;;;;;;1.33;81.98;97084.09;5064234;28;20036;-66
2021/01/13 09:56:14;;;;;;;11.77;7.13;;;;;;;1.43;83.26;97089.31;5023743;28;20044;-63
2021/01/13 09:58:44;;;;;;;15.50;7.28;;;;;;;1.52;82.58;97079.41;5056745;28;20439;-63
2021/01/13 10:01:16;;;;;;;12.52;7.65;;;;;;;1.49;82.55;97080.00;5058145;28;20032;-65
2021/01/13 10:03:44;;;;;;;14.48;7.47;;;;;;;1.33;83.12;97075.97;5075019;28;20060;-66
2021/01/13 10:06:13;;;;;;;11.60;6.78;;;;;;;1.69;83.31;97076.16;5075865;28;20067;-64
2021/01/13 10:08:38;;;;;;;15.40;7.30;;;;;;;1.67;82.85;97085.63;5076514;28;20045;-64
2021/01/13 10:11:04;;;;;;;12.10;7.10;;;;;;;1.50;83.75;97080.81;5063600;28;20120;-65
2021/01/13 10:13:30;;;;;;;13.05;7.18;;;;;;;1.70;84.68;97075.03;5050738;28;20105;-65
2021/01/13 10:16:01;;;;;;;13.38;7.47;;;;;;;1.92;84.11;97074.31;5053602;28;20048;-65
2021/01/13 10:18:27;;;;;;;13.90;7.85;;;;;;;2.09;83.40;97073.72;5064659;28;20513;-64
2021/01/13 10:20:54;;;;;;;11.00;7.45;;;;;;;2.52;81.53;97077.13;5050968;28;20409;-65
2021/01/13 10:23:24;;;;;;;12.35;7.38;;;;;;;2.72;81.65;97071.28;5070733;28;20045;-65
2021/01/13 10:25:49;;;;;;;10.10;6.68;;;;;;;2.40;81.41;97073.06;5070659;28;20033;-64
2021/01/13 10:28:15;;;;;;;11.23;6.18;;;;;;;2.28;82.50;97076.28;5065136;28;20370;-63
2021/01/13 10:30:41;;;;;;;10.30;5.95;;;;;;;2.03;83.26;97074.91;5062064;28;20135;-67
2021/01/13 10:33:07;;;;;;;9.80;5.80;;;;;;;2.04;82.85;97068.41;5059751;28;20516;-63
2021/01/13 10:35:38;;;;;;;14.98;8.60;;;;;;;2.13;81.43;97073.91;5065077;28;20045;-64
2021/01/13 10:38:04;;;;;;;13.02;6.28;;;;;;;2.25;81.48;97081.50;5071951;28;20413;-64
2021/01/13 10:40:30;;;;;;;12.90;6.95;;;;;;;2.18;80.52;97084.63;5063767;28;20047;-65
2021/01/13 10:42:56;;;;;;;15.00;8.68;;;;;;;2.53;79.05;97082.25;5056378;28;20047;-66
2021/01/13 10:45:24;;;;;;;13.27;7.35;;;;;;;2.46;79.33;97076.44;5028839;28;20583;-65
2021/01/13 10:48:07;;;;;;;11.10;6.55;;;;;;;2.41;80.11;97084.66;5070845;28;20110;-64
2021/01/13 10:50:37;;;;;;;9.02;5.50;;;;;;;2.21;82.03;97075.88;5039251;28;20048;-65
2021/01/13 10:53:03;;;;;;;10.70;6.50;;;;;;;2.20;81.35;97081.63;5057082;28;20725;-66
2021/01/13 10:55:29;;;;;;;9.60;6.35;;;;;;;2.56;79.80;97073.53;5048392;28;20131;-64
2021/01/13 10:57:56;;;;;;;9.95;5.63;;;;;;;2.44;81.59;97067.84;5061851;28;20044;-66
2021/01/13 11:00:25;;;;;;;11.90;6.07;;;;;;;2.50;80.90;97066.63;5059211;28;20807;-67
2021/01/13 11:02:55;;;;;;;9.95;5.32;;;;;;;2.49;81.42;97063.13;5063693;28;20040;-65
2021/01/13 11:05:22;;;;;;;11.48;6.55;;;;;;;2.62;81.53;97061.47;5058920;28;22202;-65
2021/01/13 11:07:51;;;;;;;13.93;6.68;;;;;;;2.35;81.39;97058.88;5061133;28;20040;-66
2021/01/13 11:10:17;;;;;;;11.05;6.47;;;;;;;2.22;81.51;97052.38;5047602;28;20074;-65
2021/01/13 11:12:43;;;;;;;8.55;5.15;;;;;;;2.39;80.02;97052.53;5045646;28;20117;-66
2021/01/13 11:15:10;;;;;;;9.95;5.65;;;;;;;2.53;79.22;97046.28;5059866;28;20040;-64
2021/01/13 11:17:37;;;;;;;10.50;5.38;;;;;;;2.45;81.38;97048.63;5051180;28;20089;-64
2021/01/13 11:20:07;;;;;;;9.45;5.80;;;;;;;2.70;80.18;97042.91;5063101;28;20068;-64
2021/01/13 11:22:44;;;;;;;10.25;5.53;;;;;;;2.47;79.44;97037.50;5065093;28;20040;-66
2021/01/13 11:25:42;;;;;;;9.38;5.20;;;;;;;2.39;78.57;97036.31;5058231;28;20048;-66
2021/01/13 11:28:13;;;;;;;9.07;4.70;;;;;;;2.64;76.44;97034.13;5013282;28;20037;-65
2021/01/13 11:30:48;;;;;;;6.68;4.32;;;;;;;2.42;77.07;97029.50;5054675;28;20595;-66
2021/01/13 11:33:15;;;;;;;8.38;4.72;;;;;;;2.50;77.62;97031.47;5057726;28;20045;-66
2021/01/13 11:35:46;;;;;;;7.45;4.53;;;;;;;2.80;76.73;97023.75;5053272;28;20076;-66
2021/01/13 11:38:37;;;;;;;8.02;4.03;;;;;;;2.76;75.39;97020.06;5062471;28;20488;-64
2021/01/13 11:41:05;;;;;;;4.95;3.17;;;;;;;2.44;75.73;97014.56;5058624;28;20049;-64
2021/01/13 11:44:10;;;;;;;7.65;4.45;;;;;;;2.66;76.04;97007.56;5057516;28;20073;-66
2021/01/13 11:47:05;;;;;;;9.63;4.03;;;;;;;2.99;75.42;97004.59;5049822;28;20040;-67
2021/01/13 11:49:41;;;;;;;6.70;3.83;;;;;;;3.44;73.33;96993.69;5036780;28;20473;-66
2021/01/13 11:52:08;;;;;;;10.40;4.20;;;;;;;3.28;73.29;96987.06;5037574;28;20072;-64